sensor_id;sensor_type;location;lat;lon;timestamp;P1;durP1;ratioP1;P2;durP2;ratioP2
3549;SDS011;45572;48.804;8.330;2022-12-10T00:00:48;44.95;;;22.02;;
3549;SDS011;45572;48.804;8.330;2022-12-10T00:03:16;44.03;;;22.15;;
3549;SDS011;45572;48.804;8.330;2022-12-10T00:05:45;46.53;;;21.77;;
3549;SDS011;45572;48.804;8.330;2022-12-10T00:08:12;42.28;;;20.05;;
3549;SDS011;45572;48.804;8.330;2022-12-10T00:10:40;39.75;;;19.17;;
3549;SDS011;45572;48.804;8.330;2022-12-10T00:13:08;37.60;;;21.38;;
3549;SDS011;45572;48.804;8.330;2022-12-10T00:15:36;43.10;;;20.63;;
3549;SDS011;45572;48.804;8.330;2022-12-10T00:18:03;42.80;;;23.00;;
3549;SDS011;45572;48.804;8.330;2022-12-10T00:20:31;38.85;;;22.27;;
3549;SDS011;45572;48.804;8.330;2022-12-10T00:23:00;38.92;;;21.55;;
3549;SDS011;45572;48.804;8.330;2022-12-10T00:25:28;40.88;;;21.60;;
3549;SDS011;45572;48.804;8.330;2022-12-10T00:27:56;43.65;;;21.90;;
3549;SDS011;45572;48.804;8.330;2022-12-10T00:30:24;42.25;;;21.88;;
3549;SDS011;45572;48.804;8.330;2022-12-10T00:32:53;38.22;;;21.08;;
3549;SDS011;45572;48.804;8.330;2022-12-10T00:35:21;34.08;;;17.75;;
3549;SDS011;45572;48.804;8.330;2022-12-10T00:37:50;29.08;;;15.23;;
3549;SDS011;45572;48.804;8.330;2022-12-10T00:40:20;37.17;;;18.67;;
3549;SDS011;45572;48.804;8.330;2022-12-10T00:42:47;35.67;;;17.38;;
3549;SDS011;45572;48.804;8.330;2022-12-10T00:45:17;44.03;;;18.48;;
3549;SDS011;45572;48.804;8.330;2022-12-10T00:47:45;35.60;;;17.50;;
3549;SDS011;45572;48.804;8.330;2022-12-10T00:50:12;33.30;;;15.63;;
3549;SDS011;45572;48.804;8.330;2022-12-10T00:52:40;29.05;;;15.25;;
3549;SDS011;45572;48.804;8.330;2022-12-10T00:55:08;31.33;;;16.90;;
3549;SDS011;45572;48.804;8.330;2022-12-10T00:57:37;26.65;;;15.73;;
3549;SDS011;45572;48.804;8.330;2022-12-10T01:00:05;31.42;;;15.98;;
3549;SDS011;45572;48.804;8.330;2022-12-10T01:02:34;29.00;;;14.68;;
3549;SDS011;45572;48.804;8.330;2022-12-10T01:05:02;28.63;;;16.10;;
3549;SDS011;45572;48.804;8.330;2022-12-10T01:07:30;32.80;;;16.85;;
3549;SDS011;45572;48.804;8.330;2022-12-10T01:09:58;23.17;;;15.00;;
3549;SDS011;45572;48.804;8.330;2022-12-10T01:12:26;30.60;;;15.18;;
3549;SDS011;45572;48.804;8.330;2022-12-10T01:14:55;29.50;;;17.10;;
3549;SDS011;45572;48.804;8.330;2022-12-10T01:17:22;27.73;;;15.27;;
3549;SDS011;45572;48.804;8.330;2022-12-10T01:19:50;29.77;;;15.05;;
3549;SDS011;45572;48.804;8.330;2022-12-10T01:22:18;28.40;;;15.23;;
3549;SDS011;45572;48.804;8.330;2022-12-10T01:24:46;30.73;;;16.33;;
3549;SDS011;45572;48.804;8.330;2022-12-10T01:27:14;31.63;;;16.05;;
3549;SDS011;45572;48.804;8.330;2022-12-10T01:29:41;32.33;;;15.57;;
3549;SDS011;45572;48.804;8.330;2022-12-10T01:32:10;31.30;;;15.15;;
3549;SDS011;45572;48.804;8.330;2022-12-10T01:34:38;35.53;;;16.70;;
3549;SDS011;45572;48.804;8.330;2022-12-10T01:37:06;35.53;;;18.40;;
3549;SDS011;45572;48.804;8.330;2022-12-10T01:39:33;33.03;;;16.52;;
3549;SDS011;45572;48.804;8.330;2022-12-10T01:42:01;31.95;;;15.75;;
3549;SDS011;45572;48.804;8.330;2022-12-10T01:47:28;26.55;;;14.57;;
3549;SDS011;45572;48.804;8.330;2022-12-10T01:49:58;37.72;;;17.67;;
3549;SDS011;45572;48.804;8.330;2022-12-10T01:52:27;29.80;;;17.35;;
3549;SDS011;45572;48.804;8.330;2022-12-10T01:54:55;29.80;;;14.75;;
3549;SDS011;45572;48.804;8.330;2022-12-10T01:57:24;27.92;;;16.52;;
3549;SDS011;45572;48.804;8.330;2022-12-10T01:59:53;35.60;;;16.85;;
3549;SDS011;45572;48.804;8.330;2022-12-10T02:02:26;30.08;;;16.10;;
3549;SDS011;45572;48.804;8.330;2022-12-10T02:05:04;28.13;;;17.30;;
3549;SDS011;45572;48.804;8.330;2022-12-10T02:07:43;27.67;;;15.38;;
3549;SDS011;45572;48.804;8.330;2022-12-10T02:10:22;28.05;;;15.68;;
3549;SDS011;45572;48.804;8.330;2022-12-10T02:12:58;22.65;;;14.43;;
3549;SDS011;45572;48.804;8.330;2022-12-10T02:15:32;28.63;;;14.52;;
3549;SDS011;45572;48.804;8.330;2022-12-10T02:18:07;32.85;;;16.15;;
3549;SDS011;45572;48.804;8.330;2022-12-10T02:20:40;23.85;;;13.90;;
3549;SDS011;45572;48.804;8.330;2022-12-10T02:23:10;26.55;;;14.93;;
3549;SDS011;45572;48.804;8.330;2022-12-10T02:25:41;29.17;;;16.35;;
3549;SDS011;45572;48.804;8.330;2022-12-10T02:28:17;27.50;;;15.38;;
3549;SDS011;45572;48.804;8.330;2022-12-10T02:30:51;26.38;;;15.05;;
3549;SDS011;45572;48.804;8.330;2022-12-10T02:33:22;29.08;;;15.43;;
3549;SDS011;45572;48.804;8.330;2022-12-10T02:35:51;33.08;;;17.20;;
3549;SDS011;45572;48.804;8.330;2022-12-10T02:38:22;31.38;;;18.80;;
3549;SDS011;45572;48.804;8.330;2022-12-10T02:40:58;40.28;;;20.90;;
3549;SDS011;45572;48.804;8.330;2022-12-10T02:43:32;33.92;;;17.45;;
3549;SDS011;45572;48.804;8.330;2022-12-10T02:46:03;34.63;;;17.88;;
3549;SDS011;45572;48.804;8.330;2022-12-10T02:48:32;31.83;;;16.88;;
3549;SDS011;45572;48.804;8.330;2022-12-10T02:51:03;38.03;;;18.20;;
3549;SDS011;45572;48.804;8.330;2022-12-10T02:53:31;37.08;;;19.23;;
3549;SDS011;45572;48.804;8.330;2022-12-10T02:56:05;37.40;;;17.48;;
3549;SDS011;45572;48.804;8.330;2022-12-10T02:58:46;31.35;;;16.83;;
3549;SDS011;45572;48.804;8.330;2022-12-10T03:01:28;32.97;;;16.15;;
3549;SDS011;45572;48.804;8.330;2022-12-10T03:04:04;39.60;;;18.95;;
3549;SDS011;45572;48.804;8.330;2022-12-10T03:06:38;36.72;;;17.95;;
3549;SDS011;45572;48.804;8.330;2022-12-10T03:09:11;37.35;;;17.42;;
3549;SDS011;45572;48.804;8.330;2022-12-10T03:11:41;29.38;;;15.75;;
3549;SDS011;45572;48.804;8.330;2022-12-10T03:14:11;33.78;;;17.92;;
3549;SDS011;45572;48.804;8.330;2022-12-10T03:16:45;32.17;;;16.35;;
3549;SDS011;45572;48.804;8.330;2022-12-10T03:19:19;32.85;;;16.40;;
3549;SDS011;45572;48.804;8.330;2022-12-10T03:21:50;32.35;;;16.10;;
3549;SDS011;45572;48.804;8.330;2022-12-10T03:24:21;37.03;;;16.95;;
3549;SDS011;45572;48.804;8.330;2022-12-10T03:26:50;30.73;;;17.65;;
3549;SDS011;45572;48.804;8.330;2022-12-10T03:29:20;26.00;;;15.60;;
3549;SDS011;45572;48.804;8.330;2022-12-10T03:31:52;28.88;;;15.88;;
3549;SDS011;45572;48.804;8.330;2022-12-10T03:34:22;31.65;;;15.48;;
3549;SDS011;45572;48.804;8.330;2022-12-10T03:36:50;29.73;;;16.25;;
3549;SDS011;45572;48.804;8.330;2022-12-10T03:39:19;33.58;;;15.85;;
3549;SDS011;45572;48.804;8.330;2022-12-10T03:41:47;32.80;;;16.98;;
3549;SDS011;45572;48.804;8.330;2022-12-10T03:44:19;37.40;;;19.00;;
3549;SDS011;45572;48.804;8.330;2022-12-10T03:46:56;39.03;;;18.23;;
3549;SDS011;45572;48.804;8.330;2022-12-10T03:49:24;25.88;;;16.75;;
3549;SDS011;45572;48.804;8.330;2022-12-10T03:51:52;32.63;;;17.00;;
3549;SDS011;45572;48.804;8.330;2022-12-10T03:54:20;34.65;;;17.13;;
3549;SDS011;45572;48.804;8.330;2022-12-10T03:56:48;30.15;;;15.48;;
3549;SDS011;45572;48.804;8.330;2022-12-10T03:59:16;30.27;;;16.60;;
3549;SDS011;45572;48.804;8.330;2022-12-10T04:01:44;35.42;;;15.40;;
3549;SDS011;45572;48.804;8.330;2022-12-10T04:04:14;30.73;;;16.48;;
3549;SDS011;45572;48.804;8.330;2022-12-10T04:06:42;31.38;;;15.48;;
3549;SDS011;45572;48.804;8.330;2022-12-10T04:09:10;35.00;;;17.08;;
3549;SDS011;45572;48.804;8.330;2022-12-10T04:11:40;30.63;;;17.23;;
3549;SDS011;45572;48.804;8.330;2022-12-10T04:14:08;32.25;;;15.73;;
3549;SDS011;45572;48.804;8.330;2022-12-10T04:16:50;27.08;;;14.23;;
3549;SDS011;45572;48.804;8.330;2022-12-10T04:19:20;31.05;;;16.65;;
3549;SDS011;45572;48.804;8.330;2022-12-10T04:21:48;28.20;;;15.25;;
3549;SDS011;45572;48.804;8.330;2022-12-10T04:24:30;36.25;;;17.20;;
3549;SDS011;45572;48.804;8.330;2022-12-10T04:27:16;42.03;;;17.13;;
3549;SDS011;45572;48.804;8.330;2022-12-10T04:29:47;27.00;;;15.55;;
3549;SDS011;45572;48.804;8.330;2022-12-10T04:32:15;32.65;;;16.73;;
3549;SDS011;45572;48.804;8.330;2022-12-10T04:34:44;32.60;;;16.55;;
3549;SDS011;45572;48.804;8.330;2022-12-10T04:37:13;29.45;;;15.80;;
3549;SDS011;45572;48.804;8.330;2022-12-10T04:39:41;29.85;;;14.90;;
3549;SDS011;45572;48.804;8.330;2022-12-10T04:42:09;31.20;;;16.50;;
3549;SDS011;45572;48.804;8.330;2022-12-10T04:44:37;24.15;;;14.75;;
3549;SDS011;45572;48.804;8.330;2022-12-10T04:47:06;25.65;;;15.30;;
3549;SDS011;45572;48.804;8.330;2022-12-10T04:49:35;28.67;;;15.75;;
3549;SDS011;45572;48.804;8.330;2022-12-10T04:52:05;29.17;;;15.77;;
3549;SDS011;45572;48.804;8.330;2022-12-10T04:54:35;29.35;;;16.55;;
3549;SDS011;45572;48.804;8.330;2022-12-10T04:57:04;29.52;;;15.95;;
3549;SDS011;45572;48.804;8.330;2022-12-10T04:59:32;27.42;;;15.77;;
3549;SDS011;45572;48.804;8.330;2022-12-10T05:02:01;26.95;;;15.00;;
3549;SDS011;45572;48.804;8.330;2022-12-10T05:04:29;36.33;;;16.85;;
3549;SDS011;45572;48.804;8.330;2022-12-10T05:06:57;33.80;;;18.15;;
3549;SDS011;45572;48.804;8.330;2022-12-10T05:09:26;27.20;;;15.88;;
3549;SDS011;45572;48.804;8.330;2022-12-10T05:11:54;33.42;;;16.67;;
3549;SDS011;45572;48.804;8.330;2022-12-10T05:14:22;32.55;;;17.08;;
3549;SDS011;45572;48.804;8.330;2022-12-10T05:16:50;25.83;;;15.07;;
3549;SDS011;45572;48.804;8.330;2022-12-10T05:19:18;31.17;;;16.38;;
3549;SDS011;45572;48.804;8.330;2022-12-10T05:21:47;30.42;;;16.65;;
3549;SDS011;45572;48.804;8.330;2022-12-10T05:24:30;35.78;;;18.13;;
3549;SDS011;45572;48.804;8.330;2022-12-10T05:26:58;34.13;;;18.70;;
3549;SDS011;45572;48.804;8.330;2022-12-10T05:29:26;32.42;;;16.15;;
3549;SDS011;45572;48.804;8.330;2022-12-10T05:31:54;34.58;;;16.20;;
3549;SDS011;45572;48.804;8.330;2022-12-10T05:34:22;35.63;;;16.30;;
3549;SDS011;45572;48.804;8.330;2022-12-10T05:36:52;30.48;;;15.70;;
3549;SDS011;45572;48.804;8.330;2022-12-10T05:39:20;33.13;;;17.85;;
3549;SDS011;45572;48.804;8.330;2022-12-10T05:41:49;32.35;;;17.55;;
3549;SDS011;45572;48.804;8.330;2022-12-10T05:44:17;36.22;;;17.65;;
3549;SDS011;45572;48.804;8.330;2022-12-10T05:46:44;36.85;;;20.25;;
3549;SDS011;45572;48.804;8.330;2022-12-10T05:49:12;35.78;;;17.27;;
3549;SDS011;45572;48.804;8.330;2022-12-10T05:51:40;35.08;;;16.45;;
3549;SDS011;45572;48.804;8.330;2022-12-10T05:54:09;36.42;;;17.50;;
3549;SDS011;45572;48.804;8.330;2022-12-10T05:56:37;42.08;;;18.50;;
3549;SDS011;45572;48.804;8.330;2022-12-10T05:59:06;42.80;;;19.92;;
3549;SDS011;45572;48.804;8.330;2022-12-10T06:01:41;33.58;;;18.52;;
3549;SDS011;45572;48.804;8.330;2022-12-10T06:04:09;40.65;;;19.05;;
3549;SDS011;45572;48.804;8.330;2022-12-10T06:06:40;36.00;;;17.63;;
3549;SDS011;45572;48.804;8.330;2022-12-10T06:09:10;35.53;;;18.27;;
3549;SDS011;45572;48.804;8.330;2022-12-10T06:11:39;36.40;;;17.90;;
3549;SDS011;45572;48.804;8.330;2022-12-10T06:14:09;33.00;;;17.02;;
3549;SDS011;45572;48.804;8.330;2022-12-10T06:16:38;37.83;;;19.27;;
3549;SDS011;45572;48.804;8.330;2022-12-10T06:19:06;40.75;;;17.58;;
3549;SDS011;45572;48.804;8.330;2022-12-10T06:21:34;32.60;;;17.92;;
3549;SDS011;45572;48.804;8.330;2022-12-10T06:24:02;34.58;;;19.00;;
3549;SDS011;45572;48.804;8.330;2022-12-10T06:26:29;30.00;;;17.77;;
3549;SDS011;45572;48.804;8.330;2022-12-10T06:28:57;33.47;;;19.67;;
3549;SDS011;45572;48.804;8.330;2022-12-10T06:31:27;33.15;;;18.70;;
3549;SDS011;45572;48.804;8.330;2022-12-10T06:33:55;37.53;;;17.27;;
3549;SDS011;45572;48.804;8.330;2022-12-10T06:36:23;29.67;;;17.63;;
3549;SDS011;45572;48.804;8.330;2022-12-10T06:38:51;35.00;;;17.60;;
3549;SDS011;45572;48.804;8.330;2022-12-10T06:41:18;29.15;;;16.05;;
3549;SDS011;45572;48.804;8.330;2022-12-10T06:43:47;38.97;;;18.60;;
3549;SDS011;45572;48.804;8.330;2022-12-10T06:46:16;32.53;;;17.15;;
3549;SDS011;45572;48.804;8.330;2022-12-10T06:48:47;35.40;;;17.60;;
3549;SDS011;45572;48.804;8.330;2022-12-10T06:51:15;37.15;;;18.95;;
3549;SDS011;45572;48.804;8.330;2022-12-10T06:53:44;33.30;;;17.00;;
3549;SDS011;45572;48.804;8.330;2022-12-10T06:56:12;41.45;;;18.40;;
3549;SDS011;45572;48.804;8.330;2022-12-10T06:58:41;38.85;;;17.40;;
3549;SDS011;45572;48.804;8.330;2022-12-10T07:01:11;34.92;;;18.40;;
3549;SDS011;45572;48.804;8.330;2022-12-10T07:03:41;33.35;;;16.75;;
3549;SDS011;45572;48.804;8.330;2022-12-10T07:06:10;34.28;;;17.48;;
3549;SDS011;45572;48.804;8.330;2022-12-10T07:08:38;33.85;;;16.80;;
3549;SDS011;45572;48.804;8.330;2022-12-10T07:11:07;31.98;;;16.00;;
3549;SDS011;45572;48.804;8.330;2022-12-10T07:13:36;33.28;;;18.38;;
3549;SDS011;45572;48.804;8.330;2022-12-10T07:16:11;35.17;;;16.95;;
3549;SDS011;45572;48.804;8.330;2022-12-10T07:18:40;36.20;;;19.63;;
3549;SDS011;45572;48.804;8.330;2022-12-10T07:21:16;32.67;;;17.58;;
3549;SDS011;45572;48.804;8.330;2022-12-10T07:23:45;38.03;;;17.40;;
3549;SDS011;45572;48.804;8.330;2022-12-10T07:26:13;38.42;;;17.08;;
3549;SDS011;45572;48.804;8.330;2022-12-10T07:28:41;31.80;;;17.27;;
3549;SDS011;45572;48.804;8.330;2022-12-10T07:31:18;42.35;;;18.42;;
3549;SDS011;45572;48.804;8.330;2022-12-10T07:33:48;35.70;;;16.73;;
3549;SDS011;45572;48.804;8.330;2022-12-10T07:36:18;32.30;;;16.92;;
3549;SDS011;45572;48.804;8.330;2022-12-10T07:38:46;39.90;;;19.40;;
3549;SDS011;45572;48.804;8.330;2022-12-10T07:41:14;35.58;;;17.95;;
3549;SDS011;45572;48.804;8.330;2022-12-10T07:43:43;28.40;;;16.58;;
3549;SDS011;45572;48.804;8.330;2022-12-10T07:46:12;36.22;;;17.65;;
3549;SDS011;45572;48.804;8.330;2022-12-10T07:48:43;37.03;;;18.10;;
3549;SDS011;45572;48.804;8.330;2022-12-10T07:51:12;37.53;;;18.05;;
3549;SDS011;45572;48.804;8.330;2022-12-10T07:53:41;35.50;;;18.70;;
3549;SDS011;45572;48.804;8.330;2022-12-10T07:56:09;39.72;;;18.85;;
3549;SDS011;45572;48.804;8.330;2022-12-10T07:58:40;37.85;;;18.50;;
3549;SDS011;45572;48.804;8.330;2022-12-10T08:01:09;39.08;;;19.83;;
3549;SDS011;45572;48.804;8.330;2022-12-10T08:03:39;39.28;;;20.58;;
3549;SDS011;45572;48.804;8.330;2022-12-10T08:06:08;40.58;;;17.63;;
3549;SDS011;45572;48.804;8.330;2022-12-10T08:08:37;32.20;;;16.33;;
3549;SDS011;45572;48.804;8.330;2022-12-10T08:11:07;38.33;;;18.15;;
3549;SDS011;45572;48.804;8.330;2022-12-10T08:13:35;34.72;;;17.35;;
3549;SDS011;45572;48.804;8.330;2022-12-10T08:16:04;36.53;;;19.30;;
3549;SDS011;45572;48.804;8.330;2022-12-10T08:18:34;41.38;;;18.55;;
3549;SDS011;45572;48.804;8.330;2022-12-10T08:21:03;35.00;;;19.20;;
3549;SDS011;45572;48.804;8.330;2022-12-10T08:23:31;43.80;;;19.02;;
3549;SDS011;45572;48.804;8.330;2022-12-10T08:26:01;39.63;;;17.75;;
3549;SDS011;45572;48.804;8.330;2022-12-10T08:28:31;42.97;;;19.60;;
3549;SDS011;45572;48.804;8.330;2022-12-10T08:31:00;43.90;;;20.15;;
3549;SDS011;45572;48.804;8.330;2022-12-10T08:33:28;42.58;;;19.60;;
3549;SDS011;45572;48.804;8.330;2022-12-10T08:35:57;43.10;;;22.33;;
3549;SDS011;45572;48.804;8.330;2022-12-10T08:38:28;40.95;;;18.50;;
3549;SDS011;45572;48.804;8.330;2022-12-10T08:40:56;40.13;;;19.25;;
3549;SDS011;45572;48.804;8.330;2022-12-10T08:43:25;44.47;;;19.88;;
3549;SDS011;45572;48.804;8.330;2022-12-10T08:45:54;54.90;;;24.75;;
3549;SDS011;45572;48.804;8.330;2022-12-10T08:48:24;43.83;;;21.35;;
3549;SDS011;45572;48.804;8.330;2022-12-10T08:50:52;41.88;;;21.27;;
3549;SDS011;45572;48.804;8.330;2022-12-10T08:53:20;39.70;;;20.48;;
3549;SDS011;45572;48.804;8.330;2022-12-10T08:55:49;44.97;;;19.85;;
3549;SDS011;45572;48.804;8.330;2022-12-10T08:58:17;35.65;;;18.50;;
3549;SDS011;45572;48.804;8.330;2022-12-10T09:00:45;43.10;;;20.92;;
3549;SDS011;45572;48.804;8.330;2022-12-10T09:03:15;41.35;;;21.02;;
3549;SDS011;45572;48.804;8.330;2022-12-10T09:05:43;39.47;;;18.38;;
3549;SDS011;45572;48.804;8.330;2022-12-10T09:08:12;40.28;;;18.92;;
3549;SDS011;45572;48.804;8.330;2022-12-10T09:10:41;43.50;;;18.60;;
3549;SDS011;45572;48.804;8.330;2022-12-10T09:13:09;40.05;;;20.10;;
3549;SDS011;45572;48.804;8.330;2022-12-10T09:15:37;37.10;;;21.48;;
3549;SDS011;45572;48.804;8.330;2022-12-10T09:18:04;37.50;;;18.38;;
3549;SDS011;45572;48.804;8.330;2022-12-10T09:20:33;40.40;;;19.30;;
3549;SDS011;45572;48.804;8.330;2022-12-10T09:23:03;50.53;;;20.80;;
3549;SDS011;45572;48.804;8.330;2022-12-10T09:25:31;42.42;;;20.17;;
3549;SDS011;45572;48.804;8.330;2022-12-10T09:27:59;42.33;;;19.45;;
3549;SDS011;45572;48.804;8.330;2022-12-10T09:30:26;47.65;;;21.92;;
3549;SDS011;45572;48.804;8.330;2022-12-10T09:32:54;41.55;;;20.48;;
3549;SDS011;45572;48.804;8.330;2022-12-10T09:35:22;48.67;;;21.13;;
3549;SDS011;45572;48.804;8.330;2022-12-10T09:37:51;41.42;;;19.20;;
3549;SDS011;45572;48.804;8.330;2022-12-10T09:40:21;42.85;;;18.98;;
3549;SDS011;45572;48.804;8.330;2022-12-10T09:43:00;40.65;;;21.02;;
3549;SDS011;45572;48.804;8.330;2022-12-10T09:45:45;42.53;;;20.40;;
3549;SDS011;45572;48.804;8.330;2022-12-10T09:48:20;74.38;;;35.03;;
3549;SDS011;45572;48.804;8.330;2022-12-10T09:50:55;43.13;;;21.35;;
3549;SDS011;45572;48.804;8.330;2022-12-10T09:53:30;64.95;;;26.80;;
3549;SDS011;45572;48.804;8.330;2022-12-10T09:55:59;42.05;;;20.65;;
3549;SDS011;45572;48.804;8.330;2022-12-10T09:58:28;42.40;;;19.90;;
3549;SDS011;45572;48.804;8.330;2022-12-10T10:00:57;39.15;;;18.77;;
3549;SDS011;45572;48.804;8.330;2022-12-10T10:03:27;35.75;;;18.38;;
3549;SDS011;45572;48.804;8.330;2022-12-10T10:05:58;43.58;;;18.77;;
3549;SDS011;45572;48.804;8.330;2022-12-10T10:08:27;39.67;;;18.50;;
3549;SDS011;45572;48.804;8.330;2022-12-10T10:10:59;39.75;;;18.92;;
3549;SDS011;45572;48.804;8.330;2022-12-10T10:13:30;40.47;;;18.70;;
3549;SDS011;45572;48.804;8.330;2022-12-10T10:16:09;43.03;;;20.27;;
3549;SDS011;45572;48.804;8.330;2022-12-10T10:18:46;40.28;;;18.00;;
3549;SDS011;45572;48.804;8.330;2022-12-10T10:21:20;39.83;;;19.50;;
3549;SDS011;45572;48.804;8.330;2022-12-10T10:23:50;42.22;;;17.25;;
3549;SDS011;45572;48.804;8.330;2022-12-10T10:26:19;41.13;;;18.88;;
3549;SDS011;45572;48.804;8.330;2022-12-10T10:28:47;36.00;;;17.27;;
3549;SDS011;45572;48.804;8.330;2022-12-10T10:31:19;38.70;;;19.15;;
3549;SDS011;45572;48.804;8.330;2022-12-10T10:33:50;39.65;;;19.95;;
3549;SDS011;45572;48.804;8.330;2022-12-10T10:36:23;36.88;;;17.77;;
3549;SDS011;45572;48.804;8.330;2022-12-10T10:38:53;40.92;;;17.27;;
3549;SDS011;45572;48.804;8.330;2022-12-10T10:41:24;38.40;;;17.30;;
3549;SDS011;45572;48.804;8.330;2022-12-10T10:43:54;40.35;;;17.30;;
3549;SDS011;45572;48.804;8.330;2022-12-10T10:46:29;37.08;;;17.00;;
3549;SDS011;45572;48.804;8.330;2022-12-10T10:49:14;36.55;;;19.30;;
3549;SDS011;45572;48.804;8.330;2022-12-10T10:51:47;38.28;;;18.77;;
3549;SDS011;45572;48.804;8.330;2022-12-10T10:54:30;37.60;;;18.92;;
3549;SDS011;45572;48.804;8.330;2022-12-10T10:57:02;44.00;;;22.67;;
3549;SDS011;45572;48.804;8.330;2022-12-10T10:59:33;46.53;;;21.75;;
3549;SDS011;45572;48.804;8.330;2022-12-10T11:02:04;34.97;;;18.15;;
3549;SDS011;45572;48.804;8.330;2022-12-10T11:04:45;39.47;;;19.10;;
3549;SDS011;45572;48.804;8.330;2022-12-10T11:07:19;37.15;;;19.23;;
3549;SDS011;45572;48.804;8.330;2022-12-10T11:09:49;43.85;;;18.73;;
3549;SDS011;45572;48.804;8.330;2022-12-10T11:12:23;36.08;;;18.27;;
3549;SDS011;45572;48.804;8.330;2022-12-10T11:14:56;36.47;;;18.00;;
3549;SDS011;45572;48.804;8.330;2022-12-10T11:17:25;35.20;;;17.83;;
3549;SDS011;45572;48.804;8.330;2022-12-10T11:19:56;34.17;;;18.42;;
3549;SDS011;45572;48.804;8.330;2022-12-10T11:22:27;36.08;;;17.02;;
3549;SDS011;45572;48.804;8.330;2022-12-10T11:24:56;31.85;;;15.73;;
3549;SDS011;45572;48.804;8.330;2022-12-10T11:27:32;32.25;;;17.00;;
3549;SDS011;45572;48.804;8.330;2022-12-10T11:30:09;37.78;;;17.65;;
3549;SDS011;45572;48.804;8.330;2022-12-10T11:32:44;33.97;;;17.00;;
3549;SDS011;45572;48.804;8.330;2022-12-10T11:35:23;33.95;;;17.17;;
3549;SDS011;45572;48.804;8.330;2022-12-10T11:38:03;28.75;;;15.05;;
3549;SDS011;45572;48.804;8.330;2022-12-10T11:40:38;36.85;;;15.90;;
3549;SDS011;45572;48.804;8.330;2022-12-10T11:43:19;32.50;;;16.10;;
3549;SDS011;45572;48.804;8.330;2022-12-10T11:45:57;28.48;;;15.25;;
3549;SDS011;45572;48.804;8.330;2022-12-10T11:48:39;30.10;;;15.40;;
3549;SDS011;45572;48.804;8.330;2022-12-10T11:51:18;27.45;;;14.35;;
3549;SDS011;45572;48.804;8.330;2022-12-10T11:53:53;33.60;;;16.50;;
3549;SDS011;45572;48.804;8.330;2022-12-10T11:56:31;30.02;;;15.55;;
3549;SDS011;45572;48.804;8.330;2022-12-10T11:59:06;36.42;;;16.60;;
3549;SDS011;45572;48.804;8.330;2022-12-10T12:01:47;31.85;;;15.88;;
3549;SDS011;45572;48.804;8.330;2022-12-10T12:04:26;27.92;;;14.50;;
3549;SDS011;45572;48.804;8.330;2022-12-10T12:07:08;31.85;;;14.75;;
3549;SDS011;45572;48.804;8.330;2022-12-10T12:09:50;34.38;;;16.73;;
3549;SDS011;45572;48.804;8.330;2022-12-10T12:12:30;33.95;;;15.73;;
3549;SDS011;45572;48.804;8.330;2022-12-10T12:15:13;28.42;;;16.67;;
3549;SDS011;45572;48.804;8.330;2022-12-10T12:17:47;28.67;;;14.32;;
3549;SDS011;45572;48.804;8.330;2022-12-10T12:20:20;41.95;;;21.27;;
3549;SDS011;45572;48.804;8.330;2022-12-10T12:22:53;62.20;;;30.27;;
3549;SDS011;45572;48.804;8.330;2022-12-10T12:25:26;44.75;;;20.92;;
3549;SDS011;45572;48.804;8.330;2022-12-10T12:27:57;39.30;;;16.55;;
3549;SDS011;45572;48.804;8.330;2022-12-10T12:30:33;31.75;;;14.65;;
3549;SDS011;45572;48.804;8.330;2022-12-10T12:33:02;29.17;;;14.75;;
3549;SDS011;45572;48.804;8.330;2022-12-10T12:35:38;33.35;;;14.55;;
3549;SDS011;45572;48.804;8.330;2022-12-10T12:38:18;34.25;;;17.20;;
3549;SDS011;45572;48.804;8.330;2022-12-10T12:40:51;32.47;;;16.05;;
3549;SDS011;45572;48.804;8.330;2022-12-10T12:43:23;29.30;;;15.30;;
3549;SDS011;45572;48.804;8.330;2022-12-10T12:45:59;33.65;;;15.48;;
3549;SDS011;45572;48.804;8.330;2022-12-10T12:48:32;31.02;;;16.70;;
3549;SDS011;45572;48.804;8.330;2022-12-10T12:51:06;28.80;;;13.73;;
3549;SDS011;45572;48.804;8.330;2022-12-10T12:53:38;32.90;;;15.02;;
3549;SDS011;45572;48.804;8.330;2022-12-10T12:56:07;31.55;;;15.20;;
3549;SDS011;45572;48.804;8.330;2022-12-10T12:58:46;28.15;;;13.45;;
3549;SDS011;45572;48.804;8.330;2022-12-10T13:01:22;22.38;;;13.75;;
3549;SDS011;45572;48.804;8.330;2022-12-10T13:03:58;29.58;;;15.30;;
3549;SDS011;45572;48.804;8.330;2022-12-10T13:06:27;27.20;;;14.10;;
3549;SDS011;45572;48.804;8.330;2022-12-10T13:08:58;27.60;;;13.70;;
3549;SDS011;45572;48.804;8.330;2022-12-10T13:11:44;27.70;;;14.02;;
3549;SDS011;45572;48.804;8.330;2022-12-10T13:17:09;20.67;;;12.05;;
3549;SDS011;45572;48.804;8.330;2022-12-10T13:22:57;24.42;;;13.05;;
3549;SDS011;45572;48.804;8.330;2022-12-10T13:25:37;22.10;;;12.38;;
3549;SDS011;45572;48.804;8.330;2022-12-10T13:33:49;25.08;;;14.18;;
3549;SDS011;45572;48.804;8.330;2022-12-10T13:36:21;25.63;;;13.05;;
3549;SDS011;45572;48.804;8.330;2022-12-10T13:38:56;22.40;;;12.70;;
3549;SDS011;45572;48.804;8.330;2022-12-10T13:41:39;27.98;;;15.52;;
3549;SDS011;45572;48.804;8.330;2022-12-10T13:44:25;27.98;;;14.27;;
3549;SDS011;45572;48.804;8.330;2022-12-10T13:47:04;22.52;;;11.98;;
3549;SDS011;45572;48.804;8.330;2022-12-10T13:49:50;24.15;;;12.40;;
3549;SDS011;45572;48.804;8.330;2022-12-10T13:52:23;27.63;;;12.93;;
3549;SDS011;45572;48.804;8.330;2022-12-10T13:54:58;27.95;;;13.13;;
3549;SDS011;45572;48.804;8.330;2022-12-10T13:57:51;25.38;;;14.27;;
3549;SDS011;45572;48.804;8.330;2022-12-10T14:00:29;23.77;;;12.35;;
3549;SDS011;45572;48.804;8.330;2022-12-10T14:03:08;25.20;;;13.98;;
3549;SDS011;45572;48.804;8.330;2022-12-10T14:05:53;31.92;;;15.77;;
3549;SDS011;45572;48.804;8.330;2022-12-10T14:08:29;36.65;;;18.50;;
3549;SDS011;45572;48.804;8.330;2022-12-10T14:11:01;25.40;;;13.82;;
3549;SDS011;45572;48.804;8.330;2022-12-10T14:13:32;27.60;;;14.88;;
3549;SDS011;45572;48.804;8.330;2022-12-10T14:16:04;21.23;;;12.80;;
3549;SDS011;45572;48.804;8.330;2022-12-10T14:18:37;23.52;;;11.48;;
3549;SDS011;45572;48.804;8.330;2022-12-10T14:21:07;29.60;;;13.95;;
3549;SDS011;45572;48.804;8.330;2022-12-10T14:23:35;23.52;;;12.30;;
3549;SDS011;45572;48.804;8.330;2022-12-10T14:26:13;24.55;;;12.85;;
3549;SDS011;45572;48.804;8.330;2022-12-10T14:28:43;23.65;;;11.75;;
3549;SDS011;45572;48.804;8.330;2022-12-10T14:31:14;26.45;;;12.88;;
3549;SDS011;45572;48.804;8.330;2022-12-10T14:33:46;20.05;;;11.60;;
3549;SDS011;45572;48.804;8.330;2022-12-10T14:36:20;21.15;;;11.95;;
3549;SDS011;45572;48.804;8.330;2022-12-10T14:38:52;22.90;;;12.90;;
3549;SDS011;45572;48.804;8.330;2022-12-10T14:41:21;24.95;;;12.80;;
3549;SDS011;45572;48.804;8.330;2022-12-10T14:43:51;18.80;;;12.55;;
3549;SDS011;45572;48.804;8.330;2022-12-10T14:46:23;20.98;;;11.45;;
3549;SDS011;45572;48.804;8.330;2022-12-10T14:48:52;25.30;;;14.60;;
3549;SDS011;45572;48.804;8.330;2022-12-10T14:51:24;18.05;;;12.18;;
3549;SDS011;45572;48.804;8.330;2022-12-10T14:53:53;27.48;;;13.82;;
3549;SDS011;45572;48.804;8.330;2022-12-10T14:56:23;20.70;;;11.23;;
3549;SDS011;45572;48.804;8.330;2022-12-10T14:58:57;21.65;;;12.32;;
3549;SDS011;45572;48.804;8.330;2022-12-10T15:01:32;23.30;;;12.40;;
3549;SDS011;45572;48.804;8.330;2022-12-10T15:04:03;22.83;;;11.10;;
3549;SDS011;45572;48.804;8.330;2022-12-10T15:06:35;23.52;;;11.90;;
3549;SDS011;45572;48.804;8.330;2022-12-10T15:09:04;21.92;;;11.68;;
3549;SDS011;45572;48.804;8.330;2022-12-10T15:11:36;19.73;;;11.10;;